sensor_id;sensor_type;location;lat;lon;timestamp;temperature;humidity
59075;DHT22;44860;53.020;6.738;2022-12-18T00:01:05;-2.80;99.90
59075;DHT22;44860;53.020;6.738;2022-12-18T00:03:35;-2.80;99.90
59075;DHT22;44860;53.020;6.738;2022-12-18T00:06:01;-2.80;99.90
59075;DHT22;44860;53.020;6.738;2022-12-18T00:08:27;-2.80;99.90
59075;DHT22;44860;53.020;6.738;2022-12-18T00:10:53;-2.80;99.90
59075;DHT22;44860;53.020;6.738;2022-12-18T00:13:19;-2.80;99.90
59075;DHT22;44860;53.020;6.738;2022-12-18T00:15:45;-2.90;99.90
59075;DHT22;44860;53.020;6.738;2022-12-18T00:18:11;-2.90;99.90
59075;DHT22;44860;53.020;6.738;2022-12-18T00:20:37;-2.90;99.90
59075;DHT22;44860;53.020;6.738;2022-12-18T00:23:04;-2.90;99.90
59075;DHT22;44860;53.020;6.738;2022-12-18T00:25:33;-3.00;99.90
59075;DHT22;44860;53.020;6.738;2022-12-18T00:27:58;-3.00;99.90
59075;DHT22;44860;53.020;6.738;2022-12-18T00:30:24;-3.00;99.90
59075;DHT22;44860;53.020;6.738;2022-12-18T00:32:50;-3.00;99.90
59075;DHT22;44860;53.020;6.738;2022-12-18T00:35:16;-3.00;99.90
59075;DHT22;44860;53.020;6.738;2022-12-18T00:37:41;-3.00;99.90
59075;DHT22;44860;53.020;6.738;2022-12-18T00:40:07;-3.10;99.90
59075;DHT22;44860;53.020;6.738;2022-12-18T00:42:35;-3.10;99.90
59075;DHT22;44860;53.020;6.738;2022-12-18T00:45:19;-3.10;99.90
59075;DHT22;44860;53.020;6.738;2022-12-18T00:47:45;-3.10;99.90
59075;DHT22;44860;53.020;6.738;2022-12-18T00:50:10;-3.10;99.90
59075;DHT22;44860;53.020;6.738;2022-12-18T00:52:36;-3.10;99.90
59075;DHT22;44860;53.020;6.738;2022-12-18T00:55:02;-3.20;99.90
59075;DHT22;44860;53.020;6.738;2022-12-18T00:57:28;-3.20;99.90
59075;DHT22;44860;53.020;6.738;2022-12-18T00:59:53;-3.20;99.90
59075;DHT22;44860;53.020;6.738;2022-12-18T01:02:19;-3.20;99.90
59075;DHT22;44860;53.020;6.738;2022-12-18T01:04:44;-3.20;99.90
59075;DHT22;44860;53.020;6.738;2022-12-18T01:07:10;-3.20;99.90
59075;DHT22;44860;53.020;6.738;2022-12-18T01:09:36;-3.20;99.90
59075;DHT22;44860;53.020;6.738;2022-12-18T01:12:01;-3.20;99.90
59075;DHT22;44860;53.020;6.738;2022-12-18T01:14:27;-3.20;99.90
59075;DHT22;44860;53.020;6.738;2022-12-18T01:16:53;-3.30;99.90
59075;DHT22;44860;53.020;6.738;2022-12-18T01:19:18;-3.30;99.90
59075;DHT22;44860;53.020;6.738;2022-12-18T01:21:44;-3.30;99.90
59075;DHT22;44860;53.020;6.738;2022-12-18T01:24:10;-3.30;99.90
59075;DHT22;44860;53.020;6.738;2022-12-18T01:26:36;-3.30;99.90
59075;DHT22;44860;53.020;6.738;2022-12-18T01:29:02;-3.30;99.90
59075;DHT22;44860;53.020;6.738;2022-12-18T01:31:30;-3.30;99.90
59075;DHT22;44860;53.020;6.738;2022-12-18T01:33:56;-3.30;99.90
59075;DHT22;44860;53.020;6.738;2022-12-18T01:36:25;-3.40;99.90
59075;DHT22;44860;53.020;6.738;2022-12-18T01:38:51;-3.40;99.90
59075;DHT22;44860;53.020;6.738;2022-12-18T01:41:21;-3.40;99.90
59075;DHT22;44860;53.020;6.738;2022-12-18T01:43:53;-3.40;99.90
59075;DHT22;44860;53.020;6.738;2022-12-18T01:46:21;-3.40;99.90
59075;DHT22;44860;53.020;6.738;2022-12-18T01:48:50;-3.40;99.90
59075;DHT22;44860;53.020;6.738;2022-12-18T01:51:17;-3.40;99.90
59075;DHT22;44860;53.020;6.738;2022-12-18T01:53:44;-3.40;99.90
59075;DHT22;44860;53.020;6.738;2022-12-18T01:56:15;-3.40;99.90
59075;DHT22;44860;53.020;6.738;2022-12-18T01:58:43;-3.40;99.90
59075;DHT22;44860;53.020;6.738;2022-12-18T02:01:11;-3.40;99.90
59075;DHT22;44860;53.020;6.738;2022-12-18T02:03:37;-3.50;99.90
59075;DHT22;44860;53.020;6.738;2022-12-18T02:08:48;-3.50;99.90
59075;DHT22;44860;53.020;6.738;2022-12-18T02:11:22;-3.50;99.90
59075;DHT22;44860;53.020;6.738;2022-12-18T02:13:56;-3.50;99.90
59075;DHT22;44860;53.020;6.738;2022-12-18T02:16:33;-3.60;99.90
59075;DHT22;44860;53.020;6.738;2022-12-18T02:19:21;-3.60;99.90
59075;DHT22;44860;53.020;6.738;2022-12-18T02:22:22;-3.50;99.90
59075;DHT22;44860;53.020;6.738;2022-12-18T02:27:23;-3.60;99.90
59075;DHT22;44860;53.020;6.738;2022-12-18T02:29:54;-3.50;99.90
59075;DHT22;44860;53.020;6.738;2022-12-18T02:32:25;-3.50;99.90
59075;DHT22;44860;53.020;6.738;2022-12-18T02:34:54;-3.50;99.90
59075;DHT22;44860;53.020;6.738;2022-12-18T02:37:23;-3.50;99.90
59075;DHT22;44860;53.020;6.738;2022-12-18T02:39:51;-3.50;99.90
59075;DHT22;44860;53.020;6.738;2022-12-18T02:42:19;-3.50;99.90
59075;DHT22;44860;53.020;6.738;2022-12-18T02:44:47;-3.60;99.90
59075;DHT22;44860;53.020;6.738;2022-12-18T02:47:15;-3.60;99.90
59075;DHT22;44860;53.020;6.738;2022-12-18T03:00:43;-3.60;99.90
59075;DHT22;44860;53.020;6.738;2022-12-18T03:03:58;-3.60;99.90
59075;DHT22;44860;53.020;6.738;2022-12-18T03:06:17;-3.60;99.90
59075;DHT22;44860;53.020;6.738;2022-12-18T03:08:47;-3.60;99.90
59075;DHT22;44860;53.020;6.738;2022-12-18T03:11:15;-3.70;99.90
59075;DHT22;44860;53.020;6.738;2022-12-18T03:13:52;-3.70;99.90
59075;DHT22;44860;53.020;6.738;2022-12-18T03:16:27;-3.70;99.90
59075;DHT22;44860;53.020;6.738;2022-12-18T03:19:24;-3.70;99.90
59075;DHT22;44860;53.020;6.738;2022-12-18T03:21:54;-3.70;99.90
59075;DHT22;44860;53.020;6.738;2022-12-18T03:24:21;-3.80;99.90
59075;DHT22;44860;53.020;6.738;2022-12-18T03:26:52;-3.80;99.90
59075;DHT22;44860;53.020;6.738;2022-12-18T03:29:25;-3.80;99.90
59075;DHT22;44860;53.020;6.738;2022-12-18T03:32:00;-3.80;99.90
59075;DHT22;44860;53.020;6.738;2022-12-18T03:34:33;-3.80;99.90
59075;DHT22;44860;53.020;6.738;2022-12-18T03:37:00;-3.80;99.90
59075;DHT22;44860;53.020;6.738;2022-12-18T03:39:26;-3.90;99.90
59075;DHT22;44860;53.020;6.738;2022-12-18T03:48:08;-3.90;99.90
59075;DHT22;44860;53.020;6.738;2022-12-18T03:51:08;-4.00;99.90
59075;DHT22;44860;53.020;6.738;2022-12-18T03:56:09;-4.00;99.90
59075;DHT22;44860;53.020;6.738;2022-12-18T03:58:37;-4.10;99.90
59075;DHT22;44860;53.020;6.738;2022-12-18T04:01:05;-4.10;99.90
59075;DHT22;44860;53.020;6.738;2022-12-18T04:03:34;-4.10;99.90
59075;DHT22;44860;53.020;6.738;2022-12-18T04:06:01;-4.10;99.90
59075;DHT22;44860;53.020;6.738;2022-12-18T04:08:27;-4.10;99.90
59075;DHT22;44860;53.020;6.738;2022-12-18T04:10:54;-4.10;99.90
59075;DHT22;44860;53.020;6.738;2022-12-18T04:13:38;-4.20;99.90
59075;DHT22;44860;53.020;6.738;2022-12-18T04:16:04;-4.20;99.90
59075;DHT22;44860;53.020;6.738;2022-12-18T04:18:30;-4.20;99.90
59075;DHT22;44860;53.020;6.738;2022-12-18T04:20:56;-4.20;99.90
59075;DHT22;44860;53.020;6.738;2022-12-18T04:23:22;-4.30;99.90
59075;DHT22;44860;53.020;6.738;2022-12-18T04:25:47;-4.30;99.90
59075;DHT22;44860;53.020;6.738;2022-12-18T04:28:13;-4.30;99.90
59075;DHT22;44860;53.020;6.738;2022-12-18T04:30:39;-4.30;99.90
59075;DHT22;44860;53.020;6.738;2022-12-18T04:33:09;-4.40;99.90
59075;DHT22;44860;53.020;6.738;2022-12-18T04:35:35;-4.30;99.90
59075;DHT22;44860;53.020;6.738;2022-12-18T04:38:01;-4.40;99.90
59075;DHT22;44860;53.020;6.738;2022-12-18T04:40:26;-4.30;99.90
59075;DHT22;44860;53.020;6.738;2022-12-18T04:42:52;-4.30;99.90
59075;DHT22;44860;53.020;6.738;2022-12-18T04:45:18;-4.30;99.90
59075;DHT22;44860;53.020;6.738;2022-12-18T04:47:43;-4.40;99.90
59075;DHT22;44860;53.020;6.738;2022-12-18T04:50:09;-4.40;99.90
59075;DHT22;44860;53.020;6.738;2022-12-18T04:52:35;-4.40;99.90
59075;DHT22;44860;53.020;6.738;2022-12-18T04:55:00;-4.40;99.90
59075;DHT22;44860;53.020;6.738;2022-12-18T04:57:26;-4.30;99.90
59075;DHT22;44860;53.020;6.738;2022-12-18T04:59:52;-4.40;99.90
59075;DHT22;44860;53.020;6.738;2022-12-18T05:02:17;-4.40;99.90
59075;DHT22;44860;53.020;6.738;2022-12-18T05:04:43;-4.40;99.90
59075;DHT22;44860;53.020;6.738;2022-12-18T05:07:09;-4.40;99.90
59075;DHT22;44860;53.020;6.738;2022-12-18T05:09:34;-4.40;99.90
59075;DHT22;44860;53.020;6.738;2022-12-18T05:12:00;-4.40;99.90
59075;DHT22;44860;53.020;6.738;2022-12-18T05:14:26;-4.40;99.90
59075;DHT22;44860;53.020;6.738;2022-12-18T05:16:53;-4.50;99.90
59075;DHT22;44860;53.020;6.738;2022-12-18T05:19:18;-4.50;99.90
59075;DHT22;44860;53.020;6.738;2022-12-18T05:21:44;-4.50;99.90
59075;DHT22;44860;53.020;6.738;2022-12-18T05:24:09;-4.50;99.90
59075;DHT22;44860;53.020;6.738;2022-12-18T05:26:35;-4.50;99.90
59075;DHT22;44860;53.020;6.738;2022-12-18T05:29:01;-4.50;99.90
59075;DHT22;44860;53.020;6.738;2022-12-18T05:31:26;-4.50;99.90
59075;DHT22;44860;53.020;6.738;2022-12-18T05:33:52;-4.50;99.90
59075;DHT22;44860;53.020;6.738;2022-12-18T05:36:18;-4.50;99.90
59075;DHT22;44860;53.020;6.738;2022-12-18T05:38:43;-4.40;99.90
59075;DHT22;44860;53.020;6.738;2022-12-18T05:41:09;-4.50;99.90
59075;DHT22;44860;53.020;6.738;2022-12-18T05:43:36;-4.50;99.90
59075;DHT22;44860;53.020;6.738;2022-12-18T05:46:05;-4.40;99.90
59075;DHT22;44860;53.020;6.738;2022-12-18T05:48:30;-4.40;99.90
59075;DHT22;44860;53.020;6.738;2022-12-18T05:51:03;-4.50;99.90
59075;DHT22;44860;53.020;6.738;2022-12-18T05:53:29;-4.50;99.90
59075;DHT22;44860;53.020;6.738;2022-12-18T05:56:00;-4.50;99.90
59075;DHT22;44860;53.020;6.738;2022-12-18T05:58:26;-4.50;99.90
59075;DHT22;44860;53.020;6.738;2022-12-18T06:00:52;-4.60;99.90
59075;DHT22;44860;53.020;6.738;2022-12-18T06:03:18;-4.60;99.90
59075;DHT22;44860;53.020;6.738;2022-12-18T06:05:44;-4.70;99.90
59075;DHT22;44860;53.020;6.738;2022-12-18T06:08:11;-4.60;99.90
59075;DHT22;44860;53.020;6.738;2022-12-18T06:10:37;-4.70;99.90
59075;DHT22;44860;53.020;6.738;2022-12-18T06:13:04;-4.70;99.90
59075;DHT22;44860;53.020;6.738;2022-12-18T06:15:30;-4.70;99.90
59075;DHT22;44860;53.020;6.738;2022-12-18T06:17:56;-4.80;99.90
59075;DHT22;44860;53.020;6.738;2022-12-18T06:20:21;-4.80;99.90
59075;DHT22;44860;53.020;6.738;2022-12-18T06:22:47;-4.80;99.90
59075;DHT22;44860;53.020;6.738;2022-12-18T06:25:13;-4.90;99.90
59075;DHT22;44860;53.020;6.738;2022-12-18T06:27:39;-4.80;99.90
59075;DHT22;44860;53.020;6.738;2022-12-18T06:30:05;-4.80;99.90
59075;DHT22;44860;53.020;6.738;2022-12-18T06:32:31;-4.80;99.90
59075;DHT22;44860;53.020;6.738;2022-12-18T06:34:57;-4.80;99.90
59075;DHT22;44860;53.020;6.738;2022-12-18T06:37:23;-4.80;99.90
59075;DHT22;44860;53.020;6.738;2022-12-18T06:39:53;-4.80;99.90
59075;DHT22;44860;53.020;6.738;2022-12-18T06:42:18;-4.80;99.90
59075;DHT22;44860;53.020;6.738;2022-12-18T06:44:44;-4.80;99.90
59075;DHT22;44860;53.020;6.738;2022-12-18T06:47:10;-4.70;99.90
59075;DHT22;44860;53.020;6.738;2022-12-18T06:49:35;-4.70;99.90
59075;DHT22;44860;53.020;6.738;2022-12-18T06:52:01;-4.70;99.90
59075;DHT22;44860;53.020;6.738;2022-12-18T06:54:27;-4.70;99.90
59075;DHT22;44860;53.020;6.738;2022-12-18T06:56:52;-4.70;99.90
59075;DHT22;44860;53.020;6.738;2022-12-18T06:59:18;-4.70;99.90
59075;DHT22;44860;53.020;6.738;2022-12-18T07:01:44;-4.70;99.90
59075;DHT22;44860;53.020;6.738;2022-12-18T07:04:09;-4.80;99.90
59075;DHT22;44860;53.020;6.738;2022-12-18T07:06:35;-4.80;99.90
59075;DHT22;44860;53.020;6.738;2022-12-18T07:09:01;-4.80;99.90
59075;DHT22;44860;53.020;6.738;2022-12-18T07:11:32;-4.80;99.90
59075;DHT22;44860;53.020;6.738;2022-12-18T07:13:59;-4.80;99.90
59075;DHT22;44860;53.020;6.738;2022-12-18T07:16:25;-4.90;99.90
59075;DHT22;44860;53.020;6.738;2022-12-18T07:18:51;-4.90;99.90
59075;DHT22;44860;53.020;6.738;2022-12-18T07:21:19;-5.00;99.90
59075;DHT22;44860;53.020;6.738;2022-12-18T07:23:45;-5.00;99.90
59075;DHT22;44860;53.020;6.738;2022-12-18T07:26:14;-5.10;99.90
59075;DHT22;44860;53.020;6.738;2022-12-18T07:28:41;-5.10;99.90
59075;DHT22;44860;53.020;6.738;2022-12-18T07:31:10;-5.10;99.90
59075;DHT22;44860;53.020;6.738;2022-12-18T07:33:36;-5.10;99.90
59075;DHT22;44860;53.020;6.738;2022-12-18T07:36:03;-5.20;99.90
59075;DHT22;44860;53.020;6.738;2022-12-18T07:38:30;-5.20;99.90
59075;DHT22;44860;53.020;6.738;2022-12-18T07:41:03;-5.20;99.90
59075;DHT22;44860;53.020;6.738;2022-12-18T07:43:29;-5.20;99.90
59075;DHT22;44860;53.020;6.738;2022-12-18T07:45:55;-5.20;99.90
59075;DHT22;44860;53.020;6.738;2022-12-18T07:48:21;-5.20;99.90
59075;DHT22;44860;53.020;6.738;2022-12-18T07:50:47;-5.20;99.90
59075;DHT22;44860;53.020;6.738;2022-12-18T07:53:12;-5.20;99.90
59075;DHT22;44860;53.020;6.738;2022-12-18T07:55:40;-5.20;99.90
59075;DHT22;44860;53.020;6.738;2022-12-18T07:58:07;-5.20;99.90
59075;DHT22;44860;53.020;6.738;2022-12-18T08:00:33;-5.30;99.90
59075;DHT22;44860;53.020;6.738;2022-12-18T08:02:59;-5.30;99.90
59075;DHT22;44860;53.020;6.738;2022-12-18T08:05:25;-5.30;99.90
59075;DHT22;44860;53.020;6.738;2022-12-18T08:07:50;-5.20;99.90
59075;DHT22;44860;53.020;6.738;2022-12-18T08:10:17;-5.20;99.90
59075;DHT22;44860;53.020;6.738;2022-12-18T08:12:42;-5.10;99.90
59075;DHT22;44860;53.020;6.738;2022-12-18T08:15:08;-5.10;99.90
59075;DHT22;44860;53.020;6.738;2022-12-18T08:17:34;-5.10;99.90
59075;DHT22;44860;53.020;6.738;2022-12-18T08:20:00;-5.10;99.90
59075;DHT22;44860;53.020;6.738;2022-12-18T08:22:25;-5.00;99.90
59075;DHT22;44860;53.020;6.738;2022-12-18T08:24:51;-5.00;99.90
59075;DHT22;44860;53.020;6.738;2022-12-18T08:27:17;-5.10;99.90
59075;DHT22;44860;53.020;6.738;2022-12-18T08:29:43;-5.10;99.90
59075;DHT22;44860;53.020;6.738;2022-12-18T08:32:09;-5.10;99.90
59075;DHT22;44860;53.020;6.738;2022-12-18T08:34:34;-5.10;99.90
59075;DHT22;44860;53.020;6.738;2022-12-18T08:37:00;-5.10;99.90
59075;DHT22;44860;53.020;6.738;2022-12-18T08:39:26;-5.10;99.90
59075;DHT22;44860;53.020;6.738;2022-12-18T08:41:51;-5.10;99.90
59075;DHT22;44860;53.020;6.738;2022-12-18T08:44:40;-5.10;99.90
59075;DHT22;44860;53.020;6.738;2022-12-18T08:47:07;-5.10;99.90
59075;DHT22;44860;53.020;6.738;2022-12-18T08:49:33;-5.10;99.90
59075;DHT22;44860;53.020;6.738;2022-12-18T08:51:59;-5.00;99.90
59075;DHT22;44860;53.020;6.738;2022-12-18T08:54:25;-5.00;99.90
59075;DHT22;44860;53.020;6.738;2022-12-18T08:56:51;-5.00;99.90
59075;DHT22;44860;53.020;6.738;2022-12-18T08:59:17;-4.90;99.90
59075;DHT22;44860;53.020;6.738;2022-12-18T09:01:43;-4.90;99.90
59075;DHT22;44860;53.020;6.738;2022-12-18T09:04:09;-4.90;99.90
59075;DHT22;44860;53.020;6.738;2022-12-18T09:06:35;-4.90;99.90
59075;DHT22;44860;53.020;6.738;2022-12-18T09:09:02;-4.90;99.90
59075;DHT22;44860;53.020;6.738;2022-12-18T09:11:29;-4.90;99.90
59075;DHT22;44860;53.020;6.738;2022-12-18T09:13:55;-4.90;99.90
59075;DHT22;44860;53.020;6.738;2022-12-18T09:16:23;-4.90;99.90
59075;DHT22;44860;53.020;6.738;2022-12-18T09:18:49;-4.80;99.90
59075;DHT22;44860;53.020;6.738;2022-12-18T09:21:17;-4.80;99.90
59075;DHT22;44860;53.020;6.738;2022-12-18T09:23:43;-4.80;99.90
59075;DHT22;44860;53.020;6.738;2022-12-18T09:26:09;-4.80;99.90
59075;DHT22;44860;53.020;6.738;2022-12-18T09:28:35;-4.80;99.90
59075;DHT22;44860;53.020;6.738;2022-12-18T09:31:05;-4.70;99.90
59075;DHT22;44860;53.020;6.738;2022-12-18T09:33:32;-4.70;99.90
59075;DHT22;44860;53.020;6.738;2022-12-18T09:35:57;-4.70;99.90
59075;DHT22;44860;53.020;6.738;2022-12-18T09:38:23;-4.60;99.90
59075;DHT22;44860;53.020;6.738;2022-12-18T09:40:52;-4.60;99.90
59075;DHT22;44860;53.020;6.738;2022-12-18T09:43:29;-4.60;99.90
59075;DHT22;44860;53.020;6.738;2022-12-18T09:46:05;-4.50;99.90
59075;DHT22;44860;53.020;6.738;2022-12-18T09:48:35;-4.40;99.90
59075;DHT22;44860;53.020;6.738;2022-12-18T09:51:24;-4.40;99.90
59075;DHT22;44860;53.020;6.738;2022-12-18T09:53:55;-4.30;99.90
59075;DHT22;44860;53.020;6.738;2022-12-18T09:56:22;-4.30;99.90
59075;DHT22;44860;53.020;6.738;2022-12-18T09:59:00;-4.20;99.90
59075;DHT22;44860;53.020;6.738;2022-12-18T10:01:27;-4.10;99.90
59075;DHT22;44860;53.020;6.738;2022-12-18T10:03:53;-4.10;99.90
59075;DHT22;44860;53.020;6.738;2022-12-18T10:06:42;-4.00;99.90
59075;DHT22;44860;53.020;6.738;2022-12-18T10:25:24;-3.70;99.90
59075;DHT22;44860;53.020;6.738;2022-12-18T10:27:53;-3.70;99.90
59075;DHT22;44860;53.020;6.738;2022-12-18T10:30:22;-3.70;99.90
59075;DHT22;44860;53.020;6.738;2022-12-18T10:32:48;-3.60;99.90
59075;DHT22;44860;53.020;6.738;2022-12-18T10:35:25;-3.60;99.90
59075;DHT22;44860;53.020;6.738;2022-12-18T10:38:05;-3.50;99.90
59075;DHT22;44860;53.020;6.738;2022-12-18T10:40:32;-3.50;99.90
59075;DHT22;44860;53.020;6.738;2022-12-18T10:43:10;-3.50;99.90
59075;DHT22;44860;53.020;6.738;2022-12-18T10:45:36;-3.40;99.90
59075;DHT22;44860;53.020;6.738;2022-12-18T10:48:03;-3.40;99.90
59075;DHT22;44860;53.020;6.738;2022-12-18T10:50:32;-3.40;99.90
59075;DHT22;44860;53.020;6.738;2022-12-18T10:53:01;-3.40;99.90
59075;DHT22;44860;53.020;6.738;2022-12-18T10:55:34;-3.30;99.90
59075;DHT22;44860;53.020;6.738;2022-12-18T10:58:27;-3.30;99.90
59075;DHT22;44860;53.020;6.738;2022-12-18T11:01:14;-3.20;99.90
59075;DHT22;44860;53.020;6.738;2022-12-18T11:03:47;-3.20;99.90
59075;DHT22;44860;53.020;6.738;2022-12-18T11:06:25;-3.10;99.90
59075;DHT22;44860;53.020;6.738;2022-12-18T11:09:01;-3.00;99.90
59075;DHT22;44860;53.020;6.738;2022-12-18T11:11:28;-3.00;99.90
59075;DHT22;44860;53.020;6.738;2022-12-18T11:16:26;-2.90;99.90
59075;DHT22;44860;53.020;6.738;2022-12-18T11:18:52;-2.80;99.90
59075;DHT22;44860;53.020;6.738;2022-12-18T11:21:17;-2.80;99.90
59075;DHT22;44860;53.020;6.738;2022-12-18T11:23:50;-2.80;99.90
59075;DHT22;44860;53.020;6.738;2022-12-18T11:26:16;-2.80;99.90
59075;DHT22;44860;53.020;6.738;2022-12-18T11:29:09;-2.70;99.90
59075;DHT22;44860;53.020;6.738;2022-12-18T11:31:36;-2.60;99.90
59075;DHT22;44860;53.020;6.738;2022-12-18T11:34:20;-2.60;99.90
59075;DHT22;44860;53.020;6.738;2022-12-18T11:36:50;-2.50;99.90
59075;DHT22;44860;53.020;6.738;2022-12-18T11:41:53;-2.40;99.90
59075;DHT22;44860;53.020;6.738;2022-12-18T11:47:47;-2.30;99.90
59075;DHT22;44860;53.020;6.738;2022-12-18T11:50:29;-2.30;99.90
59075;DHT22;44860;53.020;6.738;2022-12-18T11:52:56;-2.20;99.90
59075;DHT22;44860;53.020;6.738;2022-12-18T11:58:49;-2.20;99.90
59075;DHT22;44860;53.020;6.738;2022-12-18T12:12:36;-1.90;99.90
59075;DHT22;44860;53.020;6.738;2022-12-18T12:20:22;-1.90;99.90
59075;DHT22;44860;53.020;6.738;2022-12-18T12:34:31;-1.60;99.90
59075;DHT22;44860;53.020;6.738;2022-12-18T12:37:17;-1.60;99.90
59075;DHT22;44860;53.020;6.738;2022-12-18T12:39:47;-1.60;99.90
59075;DHT22;44860;53.020;6.738;2022-12-18T12:42:24;-1.50;99.90
59075;DHT22;44860;53.020;6.738;2022-12-18T12:45:18;-1.50;99.90
59075;DHT22;44860;53.020;6.738;2022-12-18T12:47:46;-1.50;99.90
59075;DHT22;44860;53.020;6.738;2022-12-18T12:50:17;-1.40;99.90
59075;DHT22;44860;53.020;6.738;2022-12-18T12:53:06;-1.40;99.90
59075;DHT22;44860;53.020;6.738;2022-12-18T12:55:33;-1.40;99.90
59075;DHT22;44860;53.020;6.738;2022-12-18T12:58:15;-1.30;99.90
59075;DHT22;44860;53.020;6.738;2022-12-18T13:01:37;-1.30;99.90
59075;DHT22;44860;53.020;6.738;2022-12-18T13:06:37;-1.20;99.90
59075;DHT22;44860;53.020;6.738;2022-12-18T13:09:06;-1.20;99.90
59075;DHT22;44860;53.020;6.738;2022-12-18T13:11:45;-1.20;99.90
59075;DHT22;44860;53.020;6.738;2022-12-18T13:14:35;-1.10;99.90
59075;DHT22;44860;53.020;6.738;2022-12-18T13:19:40;-1.10;99.90
59075;DHT22;44860;53.020;6.738;2022-12-18T13:22:24;-1.10;99.90
59075;DHT22;44860;53.020;6.738;2022-12-18T13:24:53;-1.00;99.90
59075;DHT22;44860;53.020;6.738;2022-12-18T13:27:45;-1.00;99.90
59075;DHT22;44860;53.020;6.738;2022-12-18T13:35:42;-0.90;99.90
59075;DHT22;44860;53.020;6.738;2022-12-18T13:41:02;-0.90;99.90
59075;DHT22;44860;53.020;6.738;2022-12-18T13:43:37;-0.90;99.90
59075;DHT22;44860;53.020;6.738;2022-12-18T13:51:29;-0.90;99.90
59075;DHT22;44860;53.020;6.738;2022-12-18T13:56:49;-0.80;99.90
59075;DHT22;44860;53.020;6.738;2022-12-18T13:59:21;-0.80;99.90
59075;DHT22;44860;53.020;6.738;2022-12-18T14:01:58;-0.80;99.90
59075;DHT22;44860;53.020;6.738;2022-12-18T14:07:13;-0.80;99.90
59075;DHT22;44860;53.020;6.738;2022-12-18T14:09:42;-0.80;99.90
59075;DHT22;44860;53.020;6.738;2022-12-18T14:12:22;-0.80;99.90
59075;DHT22;44860;53.020;6.738;2022-12-18T14:15:32;-0.80;99.90
59075;DHT22;44860;53.020;6.738;2022-12-18T14:18:03;-0.80;99.90
59075;DHT22;44860;53.020;6.738;2022-12-18T14:20:31;-0.80;99.90
59075;DHT22;44860;53.020;6.738;2022-12-18T14:22:58;-0.80;99.90
59075;DHT22;44860;53.020;6.738;2022-12-18T14:25:27;-0.80;99.90
59075;DHT22;44860;53.020;6.738;2022-12-18T14:28:15;-0.80;99.90
59075;DHT22;44860;53.020;6.738;2022-12-18T14:30:43;-0.80;99.90
59075;DHT22;44860;53.020;6.738;2022-12-18T14:33:13;-0.80;99.90
59075;DHT22;44860;53.020;6.738;2022-12-18T14:36:01;-0.80;99.90
59075;DHT22;44860;53.020;6.738;2022-12-18T14:38:31;-0.90;99.90
59075;DHT22;44860;53.020;6.738;2022-12-18T14:43:26;-0.90;99.90
59075;DHT22;44860;53.020;6.738;2022-12-18T14:45:52;-0.90;99.90
59075;DHT22;44860;53.020;6.738;2022-12-18T14:48:21;-0.90;99.90
59075;DHT22;44860;53.020;6.738;2022-12-18T14:51:00;-0.90;99.90
59075;DHT22;44860;53.020;6.738;2022-12-18T14:53:34;-0.90;99.90
59075;DHT22;44860;53.020;6.738;2022-12-18T14:56:01;-1.00;99.90
59075;DHT22;44860;53.020;6.738;2022-12-18T14:58:27;-1.00;99.90
59075;DHT22;44860;53.020;6.738;2022-12-18T15:00:53;-0.90;99.90
59075;DHT22;44860;53.020;6.738;2022-12-18T15:03:20;-1.00;99.90
59075;DHT22;44860;53.020;6.738;2022-12-18T15:05:46;-1.00;99.90
59075;DHT22;44860;53.020;6.738;2022-12-18T15:08:35;-1.00;99.90
59075;DHT22;44860;53.020;6.738;2022-12-18T15:11:01;-1.00;99.90
59075;DHT22;44860;53.020;6.738;2022-12-18T15:13:27;-1.00;99.90
59075;DHT22;44860;53.020;6.738;2022-12-18T15:15:54;-1.00;99.90
59075;DHT22;44860;53.020;6.738;2022-12-18T15:18:31;-1.00;99.90
59075;DHT22;44860;53.020;6.738;2022-12-18T15:20:59;-1.00;99.90
59075;DHT22;44860;53.020;6.738;2022-12-18T15:23:51;-1.00;99.90
59075;DHT22;44860;53.020;6.738;2022-12-18T15:26:20;-1.10;99.90
59075;DHT22;44860;53.020;6.738;2022-12-18T15:28:54;-1.10;99.90
59075;DHT22;44860;53.020;6.738;2022-12-18T15:31:32;-1.10;99.90
59075;DHT22;44860;53.020;6.738;2022-12-18T15:34:18;-1.10;99.90
59075;DHT22;44860;53.020;6.738;2022-12-18T15:36:45;-1.10;99.90
59075;DHT22;44860;53.020;6.738;2022-12-18T15:39:12;-1.20;99.90
59075;DHT22;44860;53.020;6.738;2022-12-18T15:41:38;-1.10;99.90
59075;DHT22;44860;53.020;6.738;2022-12-18T15:44:22;-1.10;99.90
59075;DHT22;44860;53.020;6.738;2022-12-18T15:46:48;-1.20;99.90
59075;DHT22;44860;53.020;6.738;2022-12-18T15:49:14;-1.10;99.90
59075;DHT22;44860;53.020;6.738;2022-12-18T15:51:39;-1.10;99.90
59075;DHT22;44860;53.020;6.738;2022-12-18T15:54:08;-1.10;99.90
59075;DHT22;44860;53.020;6.738;2022-12-18T15:56:36;-1.20;99.90
59075;DHT22;44860;53.020;6.738;2022-12-18T15:59:20;-1.20;99.90
59075;DHT22;44860;53.020;6.738;2022-12-18T16:01:48;-1.20;99.90
59075;DHT22;44860;53.020;6.738;2022-12-18T16:04:16;-1.20;99.90
59075;DHT22;44860;53.020;6.738;2022-12-18T16:06:42;-1.20;99.90
59075;DHT22;44860;53.020;6.738;2022-12-18T16:09:08;-1.20;99.90
59075;DHT22;44860;53.020;6.738;2022-12-18T16:11:36;-1.20;99.90
59075;DHT22;44860;53.020;6.738;2022-12-18T16:14:20;-1.20;99.90
59075;DHT22;44860;53.020;6.738;2022-12-18T16:16:49;-1.10;99.90
59075;DHT22;44860;53.020;6.738;2022-12-18T16:19:15;-1.20;99.90
59075;DHT22;44860;53.020;6.738;2022-12-18T16:21:41;-1.20;99.90
59075;DHT22;44860;53.020;6.738;2022-12-18T16:24:17;-1.20;99.90
59075;DHT22;44860;53.020;6.738;2022-12-18T16:26:43;-1.20;99.90
59075;DHT22;44860;53.020;6.738;2022-12-18T16:29:10;-1.20;99.90
59075;DHT22;44860;53.020;6.738;2022-12-18T16:31:36;-1.10;99.90
59075;DHT22;44860;53.020;6.738;2022-12-18T16:36:37;-1.10;99.90
59075;DHT22;44860;53.020;6.738;2022-12-18T16:39:03;-1.20;99.90
59075;DHT22;44860;53.020;6.738;2022-12-18T16:41:29;-1.20;99.90
59075;DHT22;44860;53.020;6.738;2022-12-18T16:43:57;-1.20;99.90
59075;DHT22;44860;53.020;6.738;2022-12-18T16:46:23;-1.20;99.90
59075;DHT22;44860;53.020;6.738;2022-12-18T16:48:49;-1.20;99.90
59075;DHT22;44860;53.020;6.738;2022-12-18T16:51:15;-1.10;99.90
59075;DHT22;44860;53.020;6.738;2022-12-18T16:53:40;-1.10;99.90
59075;DHT22;44860;53.020;6.738;2022-12-18T16:56:06;-1.10;99.90
59075;DHT22;44860;53.020;6.738;2022-12-18T16:58:32;-1.20;99.90
59075;DHT22;44860;53.020;6.738;2022-12-18T17:00:58;-1.10;99.90
59075;DHT22;44860;53.020;6.738;2022-12-18T17:03:24;-1.10;99.90
59075;DHT22;44860;53.020;6.738;2022-12-18T17:05:49;-1.10;99.90
59075;DHT22;44860;53.020;6.738;2022-12-18T17:08:15;-1.10;99.90
59075;DHT22;44860;53.020;6.738;2022-12-18T17:10:41;-1.20;99.90
59075;DHT22;44860;53.020;6.738;2022-12-18T17:13:06;-1.10;99.90
59075;DHT22;44860;53.020;6.738;2022-12-18T17:15:36;-1.10;99.90
59075;DHT22;44860;53.020;6.738;2022-12-18T17:18:02;-1.10;99.90
59075;DHT22;44860;53.020;6.738;2022-12-18T17:20:29;-1.10;99.90
59075;DHT22;44860;53.020;6.738;2022-12-18T17:22:58;-1.10;99.90
59075;DHT22;44860;53.020;6.738;2022-12-18T17:25:23;-1.10;99.90
59075;DHT22;44860;53.020;6.738;2022-12-18T17:27:50;-1.10;99.90
59075;DHT22;44860;53.020;6.738;2022-12-18T17:30:16;-1.10;99.90
59075;DHT22;44860;53.020;6.738;2022-12-18T17:32:41;-1.10;99.90
59075;DHT22;44860;53.020;6.738;2022-12-18T17:35:07;-1.10;99.90